N1219L KAPA-KJWN
Flight info
| Callsign | N1219L |
|---|---|
| Flight time | 1h 51m |
| Altitude | 39000 |
| Route | ECHOO1 SHAYK SLN BUM MYERZ |
| Aircraft | CL60/M-SBDE1E2E3FGHIJ1J4J5J7M3RWXYZ/LB1V1D1 |
Departure
| Time | 2026-05-07 02:08 |
|---|---|
| Airport | Centennial Airport (KAPA) |
Arrival
| Time | 2026-05-07 04:00 |
|---|---|
| Airport | John C Tune Airport (KJWN) |
| Time | Latitude | Longitude | Altitude | Speed | Heading |
|---|---|---|---|---|---|
| 2026-05-07 02:01 | 39.57032 | -104.84812 | 5835 ft | 0 kts | 180° |
| 2026-05-07 02:02 | 39.57018 | -104.84814 | 5836 ft | 1 kts | 194° |
| 2026-05-07 02:02 | 39.57003 | -104.84830 | 5837 ft | 4 kts | 244° |
| 2026-05-07 02:02 | 39.57011 | -104.84871 | 5837 ft | 5 kts | 309° |
| 2026-05-07 02:03 | 39.57058 | -104.84883 | 5835 ft | 9 kts | 2° |
| 2026-05-07 02:03 | 39.57088 | -104.84885 | 5834 ft | 3 kts | 357° |
| 2026-05-07 02:03 | 39.57130 | -104.84902 | 5833 ft | 8 kts | 296° |
| 2026-05-07 02:03 | 39.57161 | -104.84950 | 5833 ft | 8 kts | 359° |
| 2026-05-07 02:04 | 39.57232 | -104.84953 | 5830 ft | 9 kts | 357° |
| 2026-05-07 02:04 | 39.57294 | -104.84958 | 5828 ft | 8 kts | 357° |
| 2026-05-07 02:04 | 39.57364 | -104.84959 | 5826 ft | 11 kts | 359° |
| 2026-05-07 02:04 | 39.57452 | -104.84962 | 5824 ft | 13 kts | 357° |
| 2026-05-07 02:05 | 39.57552 | -104.84967 | 5821 ft | 15 kts | 358° |
| 2026-05-07 02:05 | 39.57670 | -104.84972 | 5817 ft | 18 kts | 358° |
| 2026-05-07 02:05 | 39.57801 | -104.84975 | 5814 ft | 19 kts | 359° |
| 2026-05-07 02:05 | 39.57948 | -104.84985 | 5810 ft | 21 kts | 357° |
| 2026-05-07 02:06 | 39.58106 | -104.84992 | 5804 ft | 23 kts | 358° |
| 2026-05-07 02:06 | 39.58228 | -104.84998 | 5799 ft | 10 kts | 358° |
| 2026-05-07 02:06 | 39.58310 | -104.85002 | 5796 ft | 12 kts | 358° |
| 2026-05-07 02:06 | 39.58378 | -104.85004 | 5793 ft | 6 kts | 359° |
| 2026-05-07 02:07 | 39.58408 | -104.85015 | 5792 ft | 3 kts | 308° |
| 2026-05-07 02:07 | 39.58409 | -104.85099 | 5792 ft | 5 kts | 266° |
| 2026-05-07 02:07 | 39.58394 | -104.85146 | 5792 ft | 5 kts | 198° |
| 2026-05-07 02:08 | 39.58337 | -104.85143 | 5794 ft | 23 kts | 176° |
| 2026-05-07 02:08 | 39.57884 | -104.85120 | 5812 ft | 106 kts | 177° |
| 2026-05-07 02:08 | 39.56915 | -104.85076 | 5940 ft | 163 kts | 177° |
| 2026-05-07 02:08 | 39.55732 | -104.85000 | 6655 ft | 178 kts | 176° |
| 2026-05-07 02:09 | 39.54496 | -104.84943 | 7568 ft | 187 kts | 178° |
| 2026-05-07 02:09 | 39.53080 | -104.84877 | 8035 ft | 223 kts | 179° |
| 2026-05-07 02:09 | 39.51479 | -104.84834 | 8142 ft | 230 kts | 179° |
| 2026-05-07 02:09 | 39.49881 | -104.84770 | 8043 ft | 229 kts | 179° |
| 2026-05-07 02:10 | 39.48351 | -104.85075 | 8043 ft | 221 kts | 208° |
| 2026-05-07 02:10 | 39.47232 | -104.86404 | 8029 ft | 219 kts | 236° |
| 2026-05-07 02:10 | 39.46740 | -104.88222 | 7998 ft | 219 kts | 271° |
| 2026-05-07 02:10 | 39.47214 | -104.90063 | 7973 ft | 219 kts | 309° |
| 2026-05-07 02:11 | 39.48464 | -104.91122 | 7956 ft | 221 kts | 347° |
| 2026-05-07 02:11 | 39.49994 | -104.90953 | 7949 ft | 222 kts | 26° |
| 2026-05-07 02:11 | 39.51285 | -104.89889 | 8000 ft | 224 kts | 36° |
| 2026-05-07 02:11 | 39.52537 | -104.88656 | 8016 ft | 226 kts | 37° |
| 2026-05-07 02:12 | 39.53782 | -104.87405 | 8016 ft | 226 kts | 37° |
| 2026-05-07 02:12 | 39.54953 | -104.86033 | 8014 ft | 233 kts | 54° |
| 2026-05-07 02:12 | 39.55589 | -104.83929 | 8430 ft | 269 kts | 77° |
| 2026-05-07 02:12 | 39.56000 | -104.81551 | 9463 ft | 282 kts | 76° |
| 2026-05-07 02:13 | 39.56449 | -104.79028 | 10617 ft | 292 kts | 74° |
| 2026-05-07 02:13 | 39.56902 | -104.76484 | 11853 ft | 296 kts | 72° |
| 2026-05-07 02:13 | 39.57359 | -104.73912 | 13063 ft | 299 kts | 71° |
| 2026-05-07 02:13 | 39.57830 | -104.71263 | 14121 ft | 307 kts | 71° |
| 2026-05-07 02:14 | 39.58344 | -104.68431 | 14350 ft | 342 kts | 71° |
| 2026-05-07 02:14 | 39.58899 | -104.65335 | 14806 ft | 365 kts | 72° |
| 2026-05-07 02:14 | 39.59473 | -104.62089 | 15605 ft | 376 kts | 72° |
| 2026-05-07 02:14 | 39.60056 | -104.58775 | 16613 ft | 380 kts | 71° |
| 2026-05-07 02:15 | 39.60650 | -104.55393 | 17624 ft | 383 kts | 71° |
| 2026-05-07 02:15 | 39.61240 | -104.52023 | 18566 ft | 387 kts | 71° |
| 2026-05-07 02:15 | 39.61827 | -104.48670 | 19447 ft | 390 kts | 71° |
| 2026-05-07 02:15 | 39.62426 | -104.45246 | 20280 ft | 394 kts | 71° |
| 2026-05-07 02:16 | 39.63032 | -104.41775 | 21049 ft | 398 kts | 71° |
| 2026-05-07 02:16 | 39.63652 | -104.38223 | 21789 ft | 404 kts | 71° |
| 2026-05-07 02:16 | 39.64273 | -104.34653 | 22540 ft | 407 kts | 72° |
| 2026-05-07 02:16 | 39.64904 | -104.31020 | 23251 ft | 411 kts | 72° |
| 2026-05-07 02:17 | 39.65529 | -104.27411 | 23966 ft | 413 kts | 72° |
| 2026-05-07 02:17 | 39.66159 | -104.23769 | 24616 ft | 417 kts | 71° |
| 2026-05-07 02:17 | 39.66800 | -104.20061 | 25174 ft | 423 kts | 71° |
| 2026-05-07 02:17 | 39.67441 | -104.16343 | 25837 ft | 425 kts | 72° |
| 2026-05-07 02:18 | 39.68086 | -104.12597 | 26430 ft | 429 kts | 71° |
| 2026-05-07 02:18 | 39.68744 | -104.08765 | 26969 ft | 433 kts | 71° |
| 2026-05-07 02:18 | 39.69397 | -104.04951 | 27486 ft | 436 kts | 71° |
| 2026-05-07 02:18 | 39.70054 | -104.01112 | 28002 ft | 439 kts | 71° |
| 2026-05-07 02:19 | 39.70712 | -103.97251 | 28469 ft | 442 kts | 71° |
| 2026-05-07 02:19 | 39.71386 | -103.93295 | 28924 ft | 445 kts | 71° |
| 2026-05-07 02:19 | 39.72062 | -103.89314 | 29338 ft | 448 kts | 71° |
| 2026-05-07 02:19 | 39.72738 | -103.85324 | 29748 ft | 451 kts | 71° |
| 2026-05-07 02:20 | 39.73415 | -103.81325 | 30131 ft | 453 kts | 71° |
| 2026-05-07 02:20 | 39.74065 | -103.77245 | 30431 ft | 460 kts | 75° |
| 2026-05-07 02:20 | 39.74153 | -103.72987 | 30791 ft | 472 kts | 88° |
| 2026-05-07 02:20 | 39.73838 | -103.68660 | 30997 ft | 478 kts | 89° |
| 2026-05-07 02:21 | 39.73513 | -103.64340 | 31278 ft | 479 kts | 89° |
| 2026-05-07 02:21 | 39.73185 | -103.59990 | 31521 ft | 482 kts | 89° |
| 2026-05-07 02:21 | 39.72854 | -103.55596 | 31758 ft | 484 kts | 89° |
| 2026-05-07 02:21 | 39.72520 | -103.51215 | 32019 ft | 485 kts | 89° |
| 2026-05-07 02:22 | 39.72189 | -103.46894 | 32442 ft | 481 kts | 90° |
| 2026-05-07 02:22 | 39.71858 | -103.42600 | 32959 ft | 477 kts | 89° |
| 2026-05-07 02:22 | 39.71526 | -103.38308 | 33423 ft | 473 kts | 89° |
| 2026-05-07 02:22 | 39.71195 | -103.34042 | 33804 ft | 471 kts | 90° |
| 2026-05-07 02:23 | 39.70862 | -103.29763 | 34073 ft | 472 kts | 90° |
| 2026-05-07 02:23 | 39.70532 | -103.25537 | 34289 ft | 474 kts | 91° |
| 2026-05-07 02:23 | 39.70197 | -103.21251 | 34490 ft | 476 kts | 91° |
| 2026-05-07 02:23 | 39.69861 | -103.16996 | 34723 ft | 477 kts | 91° |
| 2026-05-07 02:24 | 39.69521 | -103.12694 | 34935 ft | 478 kts | 91° |
| 2026-05-07 02:24 | 39.69180 | -103.08416 | 35153 ft | 479 kts | 91° |
| 2026-05-07 02:24 | 39.68838 | -103.04135 | 35391 ft | 479 kts | 91° |
| 2026-05-07 02:24 | 39.68492 | -102.99836 | 35599 ft | 480 kts | 91° |
| 2026-05-07 02:25 | 39.68142 | -102.95493 | 35767 ft | 482 kts | 91° |
| 2026-05-07 02:25 | 39.68016 | -102.93937 | 35824 ft | 483 kts | 91° |
| 2026-05-07 02:25 | 39.67663 | -102.89592 | 36029 ft | 484 kts | 91° |
| 2026-05-07 02:25 | 39.67310 | -102.85261 | 36267 ft | 485 kts | 92° |
| 2026-05-07 02:26 | 39.66950 | -102.80872 | 36405 ft | 487 kts | 92° |
| 2026-05-07 02:26 | 39.66590 | -102.76496 | 36583 ft | 488 kts | 92° |
| 2026-05-07 02:26 | 39.66225 | -102.72095 | 36745 ft | 489 kts | 92° |
| 2026-05-07 02:26 | 39.65858 | -102.67677 | 36890 ft | 491 kts | 92° |
| 2026-05-07 02:27 | 39.65491 | -102.63281 | 37049 ft | 493 kts | 92° |
| 2026-05-07 02:27 | 39.65115 | -102.58805 | 37212 ft | 494 kts | 92° |
| 2026-05-07 02:27 | 39.64743 | -102.54401 | 37360 ft | 495 kts | 93° |
| 2026-05-07 02:27 | 39.64368 | -102.49973 | 37515 ft | 496 kts | 93° |
| 2026-05-07 02:28 | 39.63992 | -102.45549 | 37619 ft | 498 kts | 93° |
| 2026-05-07 02:28 | 39.63607 | -102.41043 | 37768 ft | 499 kts | 93° |
| 2026-05-07 02:28 | 39.63223 | -102.36578 | 37914 ft | 500 kts | 94° |
| 2026-05-07 02:28 | 39.62828 | -102.32006 | 38058 ft | 502 kts | 94° |
| 2026-05-07 02:29 | 39.62439 | -102.27512 | 38182 ft | 502 kts | 95° |
| 2026-05-07 02:29 | 39.62048 | -102.23018 | 38297 ft | 503 kts | 95° |
| 2026-05-07 02:29 | 39.61655 | -102.18533 | 38437 ft | 504 kts | 94° |
| 2026-05-07 02:29 | 39.61256 | -102.13995 | 38560 ft | 505 kts | 95° |
| 2026-05-07 02:30 | 39.60450 | -102.04880 | 38764 ft | 506 kts | 95° |
| 2026-05-07 02:30 | 39.60048 | -102.00371 | 38881 ft | 507 kts | 95° |
| 2026-05-07 02:30 | 39.59643 | -101.95850 | 38986 ft | 507 kts | 95° |
| 2026-05-07 02:31 | 39.59235 | -101.91309 | 39105 ft | 508 kts | 95° |
| 2026-05-07 02:31 | 39.58821 | -101.86728 | 39121 ft | 511 kts | 95° |
| 2026-05-07 02:31 | 39.57987 | -101.77549 | 39108 ft | 517 kts | 95° |
| 2026-05-07 02:32 | 39.57139 | -101.68300 | 39124 ft | 522 kts | 95° |
| 2026-05-07 02:32 | 39.56270 | -101.58908 | 39104 ft | 524 kts | 95° |
| 2026-05-07 02:33 | 39.55396 | -101.49549 | 39110 ft | 524 kts | 96° |
| 2026-05-07 02:33 | 39.54488 | -101.40195 | 39106 ft | 523 kts | 98° |
| 2026-05-07 02:34 | 39.53135 | -101.30849 | 39106 ft | 523 kts | 101° |
| 2026-05-07 02:34 | 39.51764 | -101.21615 | 39128 ft | 523 kts | 101° |
| 2026-05-07 02:35 | 39.50370 | -101.12260 | 39124 ft | 525 kts | 101° |
| 2026-05-07 02:35 | 39.48974 | -101.02936 | 39137 ft | 525 kts | 101° |
| 2026-05-07 02:36 | 39.47578 | -100.93657 | 39131 ft | 525 kts | 101° |
| 2026-05-07 02:36 | 39.46174 | -100.84374 | 39125 ft | 526 kts | 101° |
| 2026-05-07 02:37 | 39.44752 | -100.75022 | 39113 ft | 526 kts | 101° |
| 2026-05-07 02:37 | 39.43332 | -100.65730 | 39122 ft | 526 kts | 101° |
| 2026-05-07 02:38 | 39.41903 | -100.56428 | 39120 ft | 527 kts | 101° |
| 2026-05-07 02:38 | 39.40475 | -100.47184 | 39125 ft | 527 kts | 101° |
| 2026-05-07 02:39 | 39.39027 | -100.37863 | 39124 ft | 527 kts | 102° |
| 2026-05-07 02:39 | 39.37565 | -100.28505 | 39123 ft | 528 kts | 102° |
| 2026-05-07 02:40 | 39.36113 | -100.19255 | 39122 ft | 529 kts | 102° |
| 2026-05-07 02:40 | 39.34645 | -100.09961 | 39127 ft | 530 kts | 103° |
| 2026-05-07 02:41 | 39.33160 | -100.00605 | 39134 ft | 530 kts | 102° |
| 2026-05-07 02:41 | 39.31667 | -99.91251 | 39143 ft | 531 kts | 103° |
| 2026-05-07 02:42 | 39.30165 | -99.81890 | 39150 ft | 531 kts | 103° |
| 2026-05-07 02:42 | 39.28660 | -99.72565 | 39132 ft | 531 kts | 103° |
| 2026-05-07 02:43 | 39.27150 | -99.63253 | 39134 ft | 531 kts | 103° |
| 2026-05-07 02:43 | 39.25628 | -99.53922 | 39129 ft | 533 kts | 103° |
| 2026-05-07 02:44 | 39.24090 | -99.44541 | 39129 ft | 534 kts | 103° |
| 2026-05-07 02:44 | 39.22548 | -99.35180 | 39121 ft | 534 kts | 103° |
| 2026-05-07 02:45 | 39.20983 | -99.25738 | 39122 ft | 534 kts | 104° |
| 2026-05-07 02:45 | 39.19426 | -99.16393 | 39121 ft | 534 kts | 104° |
| 2026-05-07 02:46 | 39.17861 | -99.07044 | 39122 ft | 534 kts | 104° |
| 2026-05-07 02:46 | 39.16286 | -98.97684 | 39131 ft | 534 kts | 105° |
| 2026-05-07 02:47 | 39.14708 | -98.88358 | 39127 ft | 533 kts | 105° |
| 2026-05-07 02:47 | 39.13123 | -98.79040 | 39125 ft | 533 kts | 105° |
| 2026-05-07 02:48 | 39.11521 | -98.69665 | 39131 ft | 534 kts | 105° |
| 2026-05-07 02:48 | 39.09924 | -98.60370 | 39129 ft | 535 kts | 105° |
| 2026-05-07 02:49 | 39.08305 | -98.50999 | 39132 ft | 536 kts | 105° |
| 2026-05-07 02:49 | 39.06669 | -98.41573 | 39126 ft | 537 kts | 105° |
| 2026-05-07 02:50 | 39.05023 | -98.32140 | 39133 ft | 537 kts | 106° |
| 2026-05-07 02:50 | 39.03374 | -98.22736 | 39128 ft | 537 kts | 106° |
| 2026-05-07 02:51 | 39.01714 | -98.13319 | 39125 ft | 538 kts | 107° |
| 2026-05-07 02:51 | 39.00046 | -98.03902 | 39132 ft | 538 kts | 107° |
| 2026-05-07 02:52 | 38.98369 | -97.94482 | 39134 ft | 539 kts | 107° |
| 2026-05-07 02:52 | 38.96687 | -97.85081 | 39139 ft | 539 kts | 107° |
| 2026-05-07 02:53 | 38.94987 | -97.75626 | 39136 ft | 539 kts | 107° |
| 2026-05-07 02:53 | 38.93290 | -97.66234 | 39128 ft | 540 kts | 107° |
| 2026-05-07 02:54 | 38.91526 | -97.56813 | 39142 ft | 540 kts | 108° |
| 2026-05-07 02:54 | 38.89688 | -97.47364 | 39137 ft | 541 kts | 108° |
| 2026-05-07 02:55 | 38.87826 | -97.37836 | 39131 ft | 541 kts | 108° |
| 2026-05-07 02:55 | 38.85982 | -97.28436 | 39126 ft | 540 kts | 109° |
| 2026-05-07 02:56 | 38.84135 | -97.19063 | 39131 ft | 541 kts | 109° |
| 2026-05-07 02:56 | 38.82275 | -97.09669 | 39132 ft | 542 kts | 109° |
| 2026-05-07 02:57 | 38.80408 | -97.00284 | 39139 ft | 543 kts | 110° |
| 2026-05-07 02:57 | 38.78537 | -96.90919 | 39131 ft | 544 kts | 109° |
| 2026-05-07 02:58 | 38.76640 | -96.81467 | 39131 ft | 545 kts | 110° |
| 2026-05-07 02:58 | 38.74742 | -96.72053 | 39130 ft | 546 kts | 110° |
| 2026-05-07 02:59 | 38.72820 | -96.62563 | 39126 ft | 547 kts | 110° |
| 2026-05-07 02:59 | 38.70889 | -96.53072 | 39126 ft | 549 kts | 110° |
| 2026-05-07 03:00 | 38.68946 | -96.43559 | 39126 ft | 550 kts | 110° |
| 2026-05-07 03:00 | 38.66984 | -96.33999 | 39125 ft | 551 kts | 111° |
| 2026-05-07 03:01 | 38.65005 | -96.24399 | 39130 ft | 551 kts | 111° |
| 2026-05-07 03:01 | 38.63032 | -96.14871 | 39137 ft | 551 kts | 111° |
| 2026-05-07 03:02 | 38.61055 | -96.05372 | 39138 ft | 553 kts | 111° |
| 2026-05-07 03:02 | 38.59063 | -95.95836 | 39142 ft | 554 kts | 111° |
| 2026-05-07 03:03 | 38.57069 | -95.86337 | 39144 ft | 555 kts | 111° |
| 2026-05-07 03:03 | 38.55049 | -95.76759 | 39143 ft | 557 kts | 111° |
| 2026-05-07 03:04 | 38.53005 | -95.67101 | 39154 ft | 558 kts | 111° |
| 2026-05-07 03:04 | 38.50967 | -95.57518 | 39147 ft | 559 kts | 112° |
| 2026-05-07 03:05 | 38.48911 | -95.47897 | 39144 ft | 560 kts | 112° |
| 2026-05-07 03:05 | 38.46837 | -95.38231 | 39140 ft | 562 kts | 112° |
| 2026-05-07 03:06 | 38.44741 | -95.28503 | 39140 ft | 562 kts | 113° |
| 2026-05-07 03:06 | 38.42655 | -95.18864 | 39131 ft | 563 kts | 112° |
| 2026-05-07 03:07 | 38.40562 | -95.09236 | 39113 ft | 564 kts | 113° |
| 2026-05-07 03:07 | 38.38455 | -94.99588 | 39115 ft | 565 kts | 113° |
| 2026-05-07 03:08 | 38.36324 | -94.89874 | 39124 ft | 566 kts | 114° |
| 2026-05-07 03:08 | 38.34192 | -94.80193 | 39124 ft | 566 kts | 113° |
| 2026-05-07 03:09 | 38.32054 | -94.70526 | 39117 ft | 567 kts | 113° |
| 2026-05-07 03:09 | 38.29887 | -94.60772 | 39126 ft | 569 kts | 114° |
| 2026-05-07 03:10 | 38.27720 | -94.51054 | 39129 ft | 569 kts | 114° |
| 2026-05-07 03:10 | 38.25324 | -94.41492 | 39123 ft | 566 kts | 117° |
| 2026-05-07 03:11 | 38.22809 | -94.31915 | 39118 ft | 568 kts | 117° |
| 2026-05-07 03:11 | 38.20284 | -94.22326 | 39115 ft | 570 kts | 118° |
| 2026-05-07 03:12 | 38.17763 | -94.12785 | 39118 ft | 570 kts | 118° |
| 2026-05-07 03:12 | 38.15224 | -94.03209 | 39120 ft | 571 kts | 118° |
| 2026-05-07 03:13 | 38.12669 | -93.93611 | 39119 ft | 573 kts | 118° |
| 2026-05-07 03:13 | 38.10084 | -93.83932 | 39122 ft | 575 kts | 118° |
| 2026-05-07 03:14 | 38.07511 | -93.74332 | 39111 ft | 576 kts | 118° |
| 2026-05-07 03:15 | 38.03611 | -93.59846 | 39128 ft | 575 kts | 118° |
| 2026-05-07 03:15 | 38.00984 | -93.50137 | 39116 ft | 577 kts | 118° |
| 2026-05-07 03:16 | 37.98356 | -93.40458 | 39118 ft | 577 kts | 118° |
| 2026-05-07 03:16 | 37.95711 | -93.30751 | 39133 ft | 576 kts | 119° |
| 2026-05-07 03:17 | 37.93092 | -93.21169 | 39123 ft | 574 kts | 120° |
| 2026-05-07 03:17 | 37.90455 | -93.11562 | 39137 ft | 574 kts | 120° |
| 2026-05-07 03:18 | 37.87791 | -93.01900 | 39132 ft | 575 kts | 120° |
| 2026-05-07 03:18 | 37.85152 | -92.92357 | 39120 ft | 575 kts | 120° |
| 2026-05-07 03:19 | 37.82489 | -92.82762 | 39116 ft | 576 kts | 120° |
| 2026-05-07 03:19 | 37.79804 | -92.73126 | 39135 ft | 578 kts | 120° |
| 2026-05-07 03:20 | 37.77102 | -92.63469 | 39125 ft | 580 kts | 120° |
| 2026-05-07 03:20 | 37.74398 | -92.53834 | 39121 ft | 581 kts | 120° |
| 2026-05-07 03:21 | 37.71692 | -92.44222 | 39115 ft | 581 kts | 120° |
| 2026-05-07 03:21 | 37.68982 | -92.34628 | 39110 ft | 579 kts | 121° |
| 2026-05-07 03:22 | 37.66238 | -92.24946 | 39106 ft | 577 kts | 121° |
| 2026-05-07 03:22 | 37.63496 | -92.15321 | 39109 ft | 579 kts | 121° |
| 2026-05-07 03:23 | 37.60763 | -92.05755 | 39117 ft | 580 kts | 121° |
| 2026-05-07 03:23 | 37.58013 | -91.96167 | 39114 ft | 581 kts | 121° |
| 2026-05-07 03:24 | 37.55251 | -91.86565 | 39109 ft | 582 kts | 121° |
| 2026-05-07 03:24 | 37.52477 | -91.76956 | 39098 ft | 581 kts | 121° |
| 2026-05-07 03:25 | 37.49696 | -91.67356 | 39101 ft | 581 kts | 120° |
| 2026-05-07 03:25 | 37.46921 | -91.57814 | 39099 ft | 582 kts | 121° |
| 2026-05-07 03:26 | 37.44115 | -91.48201 | 39098 ft | 584 kts | 121° |
| 2026-05-07 03:26 | 37.41283 | -91.38530 | 39096 ft | 585 kts | 120° |
| 2026-05-07 03:27 | 37.38422 | -91.28791 | 39095 ft | 584 kts | 121° |
| 2026-05-07 03:27 | 37.35601 | -91.19220 | 39092 ft | 582 kts | 121° |
| 2026-05-07 03:28 | 37.32782 | -91.09690 | 39082 ft | 581 kts | 121° |
| 2026-05-07 03:28 | 37.29952 | -91.00161 | 39093 ft | 581 kts | 121° |
| 2026-05-07 03:29 | 37.27117 | -90.90651 | 39084 ft | 583 kts | 121° |
| 2026-05-07 03:29 | 37.24261 | -90.81098 | 39079 ft | 583 kts | 120° |
| 2026-05-07 03:30 | 37.21368 | -90.71456 | 39083 ft | 583 kts | 121° |
| 2026-05-07 03:30 | 37.18659 | -90.61816 | 39079 ft | 590 kts | 116° |
| 2026-05-07 03:31 | 37.16196 | -90.51928 | 39078 ft | 590 kts | 116° |
| 2026-05-07 03:31 | 37.13725 | -90.42066 | 39074 ft | 589 kts | 117° |
| 2026-05-07 03:32 | 37.11241 | -90.32203 | 39077 ft | 589 kts | 117° |
| 2026-05-07 03:32 | 37.08772 | -90.22444 | 39071 ft | 589 kts | 117° |
| 2026-05-07 03:33 | 37.06277 | -90.12626 | 39069 ft | 590 kts | 117° |
| 2026-05-07 03:33 | 37.03785 | -90.02859 | 39069 ft | 590 kts | 117° |
| 2026-05-07 03:34 | 37.01285 | -89.93107 | 39068 ft | 591 kts | 117° |
| 2026-05-07 03:34 | 36.98766 | -89.83321 | 39069 ft | 592 kts | 117° |
| 2026-05-07 03:35 | 36.96228 | -89.73492 | 39071 ft | 592 kts | 116° |
| 2026-05-07 03:35 | 36.93699 | -89.63737 | 39075 ft | 592 kts | 117° |
| 2026-05-07 03:36 | 36.91163 | -89.53987 | 39069 ft | 590 kts | 117° |
| 2026-05-07 03:36 | 36.88614 | -89.44235 | 39070 ft | 589 kts | 117° |
| 2026-05-07 03:37 | 36.86043 | -89.34433 | 39069 ft | 588 kts | 118° |
| 2026-05-07 03:37 | 36.83501 | -89.24776 | 39064 ft | 586 kts | 117° |
| 2026-05-07 03:38 | 36.81445 | -89.14787 | 39066 ft | 599 kts | 105° |
| 2026-05-07 03:38 | 36.80560 | -89.04401 | 39067 ft | 603 kts | 101° |
| 2026-05-07 03:39 | 36.79737 | -88.93932 | 38823 ft | 608 kts | 101° |
| 2026-05-07 03:39 | 36.79313 | -88.88618 | 38078 ft | 613 kts | 102° |
| 2026-05-07 03:39 | 36.78887 | -88.83273 | 37329 ft | 609 kts | 102° |
| 2026-05-07 03:39 | 36.78466 | -88.78005 | 36585 ft | 605 kts | 101° |
| 2026-05-07 03:40 | 36.78044 | -88.72772 | 35810 ft | 603 kts | 102° |
| 2026-05-07 03:40 | 36.77620 | -88.67560 | 35015 ft | 603 kts | 102° |
| 2026-05-07 03:40 | 36.77198 | -88.62399 | 34225 ft | 602 kts | 102° |
| 2026-05-07 03:40 | 36.76765 | -88.57153 | 33415 ft | 604 kts | 102° |
| 2026-05-07 03:41 | 36.76336 | -88.51963 | 32653 ft | 602 kts | 101° |
| 2026-05-07 03:41 | 36.75906 | -88.46779 | 31797 ft | 599 kts | 101° |
| 2026-05-07 03:41 | 36.75474 | -88.41600 | 31037 ft | 592 kts | 102° |
| 2026-05-07 03:41 | 36.75049 | -88.36528 | 30226 ft | 587 kts | 102° |
| 2026-05-07 03:42 | 36.74628 | -88.31520 | 29473 ft | 580 kts | 102° |
| 2026-05-07 03:42 | 36.74210 | -88.26576 | 28696 ft | 574 kts | 102° |
| 2026-05-07 03:42 | 36.73799 | -88.21776 | 27963 ft | 568 kts | 101° |
| 2026-05-07 03:42 | 36.73387 | -88.16962 | 27217 ft | 561 kts | 101° |
| 2026-05-07 03:43 | 36.72994 | -88.12389 | 26520 ft | 555 kts | 101° |
| 2026-05-07 03:43 | 36.72579 | -88.07583 | 25757 ft | 548 kts | 102° |
| 2026-05-07 03:43 | 36.72169 | -88.02870 | 25042 ft | 541 kts | 101° |
| 2026-05-07 03:43 | 36.71776 | -87.98369 | 24338 ft | 535 kts | 101° |
| 2026-05-07 03:44 | 36.71375 | -87.93797 | 23635 ft | 528 kts | 102° |
| 2026-05-07 03:44 | 36.70978 | -87.89307 | 22941 ft | 522 kts | 101° |
| 2026-05-07 03:44 | 36.70590 | -87.84920 | 22264 ft | 515 kts | 102° |
| 2026-05-07 03:44 | 36.70207 | -87.80612 | 21594 ft | 508 kts | 102° |
| 2026-05-07 03:45 | 36.69820 | -87.76267 | 20930 ft | 501 kts | 102° |
| 2026-05-07 03:45 | 36.69439 | -87.72022 | 20270 ft | 493 kts | 101° |
| 2026-05-07 03:45 | 36.69069 | -87.67911 | 19638 ft | 485 kts | 102° |
| 2026-05-07 03:45 | 36.68694 | -87.63764 | 19007 ft | 478 kts | 102° |
| 2026-05-07 03:46 | 36.68322 | -87.59663 | 18373 ft | 471 kts | 102° |
| 2026-05-07 03:46 | 36.67957 | -87.55669 | 17755 ft | 465 kts | 101° |
| 2026-05-07 03:46 | 36.67603 | -87.51804 | 17113 ft | 459 kts | 101° |
| 2026-05-07 03:46 | 36.67288 | -87.48380 | 16603 ft | 453 kts | 101° |
| 2026-05-07 03:47 | 36.66910 | -87.44282 | 15960 ft | 446 kts | 101° |
| 2026-05-07 03:47 | 36.66559 | -87.40494 | 15377 ft | 440 kts | 100° |
| 2026-05-07 03:47 | 36.66217 | -87.36820 | 14809 ft | 433 kts | 99° |
| 2026-05-07 03:47 | 36.65872 | -87.33117 | 14234 ft | 426 kts | 100° |
| 2026-05-07 03:48 | 36.65547 | -87.29656 | 13702 ft | 419 kts | 99° |
| 2026-05-07 03:48 | 36.65207 | -87.26026 | 13127 ft | 407 kts | 99° |
| 2026-05-07 03:48 | 36.64883 | -87.22584 | 12594 ft | 395 kts | 99° |
| 2026-05-07 03:48 | 36.64570 | -87.19265 | 12089 ft | 384 kts | 98° |
| 2026-05-07 03:49 | 36.64260 | -87.15998 | 11580 ft | 373 kts | 98° |
| 2026-05-07 03:49 | 36.63958 | -87.12833 | 11087 ft | 363 kts | 98° |
| 2026-05-07 03:49 | 36.63670 | -87.09808 | 10619 ft | 350 kts | 98° |
| 2026-05-07 03:49 | 36.63385 | -87.06844 | 10165 ft | 339 kts | 97° |
| 2026-05-07 03:50 | 36.63114 | -87.04024 | 9737 ft | 328 kts | 97° |
| 2026-05-07 03:50 | 36.62846 | -87.01234 | 9301 ft | 319 kts | 97° |
| 2026-05-07 03:50 | 36.62585 | -86.98539 | 8886 ft | 310 kts | 96° |
| 2026-05-07 03:50 | 36.62329 | -86.95904 | 8476 ft | 301 kts | 96° |
| 2026-05-07 03:51 | 36.61917 | -86.93381 | 8063 ft | 292 kts | 112° |
| 2026-05-07 03:51 | 36.60899 | -86.91251 | 7619 ft | 282 kts | 135° |
| 2026-05-07 03:51 | 36.59429 | -86.89775 | 7216 ft | 269 kts | 155° |
| 2026-05-07 03:51 | 36.57718 | -86.88959 | 6803 ft | 261 kts | 170° |
| 2026-05-07 03:52 | 36.55981 | -86.88436 | 6467 ft | 259 kts | 170° |
| 2026-05-07 03:52 | 36.54279 | -86.87920 | 6138 ft | 257 kts | 169° |
| 2026-05-07 03:52 | 36.52575 | -86.87399 | 5794 ft | 244 kts | 169° |
| 2026-05-07 03:52 | 36.51002 | -86.86919 | 5496 ft | 232 kts | 169° |
| 2026-05-07 03:53 | 36.49457 | -86.86450 | 5189 ft | 222 kts | 168° |
| 2026-05-07 03:53 | 36.47998 | -86.86008 | 4901 ft | 213 kts | 168° |
| 2026-05-07 03:53 | 36.46574 | -86.85577 | 4617 ft | 206 kts | 167° |
| 2026-05-07 03:53 | 36.45179 | -86.85157 | 4343 ft | 206 kts | 166° |
| 2026-05-07 03:54 | 36.43778 | -86.84735 | 4056 ft | 205 kts | 166° |
| 2026-05-07 03:54 | 36.42406 | -86.84322 | 3800 ft | 204 kts | 165° |
| 2026-05-07 03:54 | 36.41031 | -86.83909 | 3512 ft | 202 kts | 164° |
| 2026-05-07 03:54 | 36.39695 | -86.83508 | 3236 ft | 186 kts | 164° |
| 2026-05-07 03:55 | 36.38506 | -86.83154 | 3050 ft | 170 kts | 163° |
| 2026-05-07 03:55 | 36.37369 | -86.82813 | 2988 ft | 165 kts | 163° |
| 2026-05-07 03:55 | 36.36202 | -86.82758 | 2978 ft | 171 kts | 191° |
| 2026-05-07 03:55 | 36.35071 | -86.83150 | 2999 ft | 169 kts | 197° |
| 2026-05-07 03:56 | 36.33942 | -86.83549 | 2992 ft | 169 kts | 195° |
| 2026-05-07 03:56 | 36.32798 | -86.83927 | 2997 ft | 168 kts | 194° |
| 2026-05-07 03:56 | 36.31673 | -86.84293 | 2994 ft | 162 kts | 195° |
| 2026-05-07 03:56 | 36.30619 | -86.84636 | 2807 ft | 155 kts | 194° |
| 2026-05-07 03:57 | 36.29590 | -86.84971 | 2622 ft | 150 kts | 194° |
| 2026-05-07 03:57 | 36.28578 | -86.85301 | 2429 ft | 150 kts | 193° |
| 2026-05-07 03:57 | 36.27575 | -86.85629 | 2251 ft | 149 kts | 195° |
| 2026-05-07 03:57 | 36.26604 | -86.85947 | 2064 ft | 149 kts | 195° |
| 2026-05-07 03:58 | 36.25582 | -86.86288 | 1857 ft | 148 kts | 194° |
| 2026-05-07 03:58 | 36.24585 | -86.86618 | 1663 ft | 146 kts | 194° |
| 2026-05-07 03:58 | 36.23618 | -86.86932 | 1490 ft | 145 kts | 194° |
| 2026-05-07 03:58 | 36.22649 | -86.87254 | 1289 ft | 143 kts | 194° |
| 2026-05-07 03:59 | 36.21718 | -86.87556 | 1083 ft | 140 kts | 195° |
| 2026-05-07 03:59 | 36.20779 | -86.87857 | 887 ft | 137 kts | 194° |
| 2026-05-07 03:59 | 36.19944 | -86.88121 | 718 ft | 135 kts | 194° |
| 2026-05-07 03:59 | 36.18982 | -86.88431 | 520 ft | 130 kts | 195° |
| 2026-05-07 04:00 | 36.18262 | -86.88665 | 508 ft | 67 kts | 195° |
| 2026-05-07 04:00 | 36.18056 | -86.88730 | 507 ft | 0 kts | 194° |
| 2026-05-07 04:00 | 36.18037 | -86.88736 | 507 ft | 5 kts | 195° |
| 2026-05-07 04:00 | 36.17971 | -86.88757 | 507 ft | 9 kts | 194° |
| 2026-05-07 04:01 | 36.17942 | -86.88760 | 507 ft | 6 kts | 156° |
| 2026-05-07 04:01 | 36.17922 | -86.88701 | 507 ft | 8 kts | 104° |
| 2026-05-07 04:01 | 36.17923 | -86.88638 | 507 ft | 7 kts | 40° |
| 2026-05-07 04:01 | 36.17977 | -86.88617 | 507 ft | 8 kts | 13° |
| 2026-05-07 04:02 | 36.18017 | -86.88593 | 507 ft | 5 kts | 74° |
| 2026-05-07 04:02 | 36.18008 | -86.88547 | 507 ft | 6 kts | 126° |
| 2026-05-07 04:02 | 36.17968 | -86.88547 | 507 ft | 4 kts | 194° |
| 2026-05-07 04:02 | 36.17939 | -86.88553 | 507 ft | 3 kts | 161° |
| 2026-05-07 04:03 | 36.17932 | -86.88545 | 507 ft | 2 kts | 114° |
| 2026-05-07 04:03 | 36.17930 | -86.88536 | 507 ft | 0 kts | 104° |
| 2026-05-07 04:09 | 36.17921 | -86.88491 | 507 ft | 10 kts | 118° |
| 2026-05-07 04:09 | 36.17880 | -86.88440 | 507 ft | 5 kts | 137° |
| 2026-05-07 04:09 | 36.17863 | -86.88421 | 507 ft | 2 kts | 123° |
| 2026-05-07 04:10 | 36.17873 | -86.88402 | 507 ft | 0 kts | 47° |
| 2026-05-07 04:10 | 36.17874 | -86.88399 | 507 ft | 0 kts | 46° |